x

Bw Pioneer Buoy - Walker Ridge 249 (42360) Wave Buoy

10:00am - Mon 20th Oct 2014 All times are UTC.

  • Sig Wave height 2.0ft
  • Peak Period 6s
  • Wind
    13mph, 20mph gusts
  • Sea Temp 85°f
  • Air Temp 80°f
  • Sea Pressure 1013.7mb

More Historic Weather Station data

Upgrade to MSW Pro to gain access to the past 30 days of data for over 8000 Wavebouys and Weather Stations around the globe.

Join Pro

Comparision Forecast

View Surf forecast
   
Mon 10/20 10:00am 2ft 6s 13 20 mph 1013.7mb 85f 80f
9:00am 2ft 6s 16 27 mph 1013.9mb 85f 80f
8:00am 2ft 5s 16 22 mph 1014.3mb 85f 80f
7:00am 2ft 6s 13 22 mph 1014.8mb 85f 81f
6:00am 2ft 6s 18 25 mph 1014.9mb 85f 80f
5:00am 1.6ft 5s 18 25 mph 1015.6mb 85f 81f
4:00am 1.6ft 3s 18 25 mph 1015.9mb 85f 81f
3:00am 1.3ft 3s 16 22 mph 1016mb 85f 80f
2:00am 1.6ft 3s 18 27 mph 1015.5mb 85f 80f
1:00am 1.6ft 3s 18 25 mph 1015.2mb 85f 80f
12:00am 1.6ft 3s 18 27 mph 1014.8mb 85f 80f
Sun 10/19 11:00pm 1.6ft 3s 20 27 mph 1014.5mb 85f 80f
10:00pm 1.3ft 2s 20 25 mph 1014.3mb 85f 80f
9:00pm 1.3ft 3s 18 25 mph 1014.4mb 85f 80f
8:00pm 1.3ft 2s 18 22 mph 1014.8mb 85f 80f
7:00pm 1ft 2s 18 22 mph 1015.3mb 85f 80f
6:00pm 1ft 3s 13 18 mph 1016.4mb 85f 80f
5:00pm 1ft 3s 18 22 mph 1016.8mb 85f 80f
4:00pm 1ft 3s 16 22 mph 1016.9mb 85f 80f
3:00pm 1.3ft 3s 16 22 mph 1016.9mb 85f 79f
2:00pm 1ft 3s 16 25 mph 1016.4mb 85f 79f
1:00pm 1ft 4s 20 31 mph 1015.4mb 85f 80f
12:00pm 1ft 3s 13 18 mph 1015.3mb 85f 80f
11:00am 1ft 4s 13 20 mph 1015mb 85f 80f
10:00am 1ft 4s 13 20 mph 1014.8mb 85f 80f
9:00am 1ft 4s 13 18 mph 1014.8mb 85f 80f
8:00am 0.7ft  -  11 18 mph 1015.3mb 85f 80f
7:00am 0.7ft  -  13 18 mph 1015.9mb 85f 80f
6:00am 0.7ft  -  16 25 mph 1015.9mb 85f 80f
5:00am 0.7ft  -  9 16 mph 1016.3mb 85f 80f
4:00am 0.7ft  -  11 13 mph 1016.3mb 85f 80f
3:00am 0.7ft  -  11 16 mph 1016mb 85f 80f
2:00am 0.7ft  -  9 11 mph 1015.4mb 85f 79f
1:00am 0.7ft  -  7 13 mph 1014.9mb 85f 79f
12:00am 0.7ft  -  9 13 mph 1014.3mb 85f 79f
Sat 10/18 11:00pm 0.7ft  -  11 16 mph 1014.2mb 85f 80f
10:00pm 0.7ft  -  7 11 mph 1014.3mb 85f 80f
9:00pm 0.7ft  -  4 7 mph 1014.5mb 85f 79f
8:00pm 0.7ft  -  4 9 mph 1015.3mb 85f 80f
7:00pm 0.7ft  -  2 4 mph 1015.8mb 85f 81f
6:00pm 0.7ft  -  2 4 mph 1016.5mb 85f 80f
5:00pm 0.7ft  -  2 7 mph 1017.1mb 85f 80f
4:00pm 0.7ft  -  4 7 mph 1017.4mb 85f 79f
3:00pm 0.7ft  -   -  4 mph 1017.5mb 85f 81f
2:00pm 0.7ft  -  4 9 mph 1017.1mb 85f 78f
1:00pm 0.7ft  -  2 7 mph 1016.3mb 85f 78f
12:00pm 0.7ft  -  4 9 mph 1015.8mb 85f 77f
11:00am 0.7ft  -  4 7 mph 1015.4mb 85f 77f
10:00am 0.7ft  -  4 9 mph 1014.9mb 85f 77f
9:00am 0.7ft  -  9 16 mph 1014.5mb 85f 77f
8:00am 0.7ft  -  7 13 mph 1014.9mb 85f 77f
7:00am 0.7ft  -  7 13 mph 1015.3mb 85f 77f
6:00am 0.7ft  -  9 13 mph 1015.5mb 85f 77f
5:00am 0.7ft  -  9 18 mph 1016mb 85f 78f
4:00am 0.7ft  -  7 11 mph 1016.3mb 85f 78f
3:00am 0.7ft  -  4 9 mph 1016mb 85f 78f
2:00am 0.7ft  -  4 9 mph 1015.6mb 85f 78f
1:00am 0.7ft  -  7 13 mph 1015.3mb 85f 78f
12:00am 0.7ft  -  2 7 mph 1014.7mb 85f 78f
Fri 10/17 11:00pm 0.7ft  -  7 11 mph 1014.7mb 85f 78f
10:00pm 0.7ft  -  2 4 mph 1014.8mb 85f 78f
9:00pm 0.7ft  -  4 9 mph 1015.2mb 85f 79f
8:00pm 0.7ft  -  4 9 mph 1015.6mb 85f 79f
7:00pm 0.7ft  -  4 7 mph 1016.3mb 85f 79f
6:00pm 0.7ft  -  7 11 mph 1017mb 85f 79f
5:00pm 0.7ft  -  7 11 mph 1017.5mb 85f 78f
4:00pm 0.7ft  -  7 9 mph 1017.7mb 85f 78f
3:00pm 0.7ft  -  9 13 mph 1017.4mb 85f 78f
2:00pm 0.7ft  -  7 13 mph 1017mb 85f 78f
1:00pm 1ft 4s 4 9 mph 1016.1mb 85f 78f
12:00pm 0.7ft  -  2 11 mph 1015.4mb 85f 76f
11:00am 1ft 4s 4 11 mph 1015mb 85f 76f
10:00am 1ft 4s 2 7 mph 1014.5mb 85f 76f
9:00am 1ft 4s 4 9 mph 1014.4mb 85f 77f
8:00am 1ft 5s 7 11 mph 1014.8mb 85f 77f
7:00am 1ft 4s 7 13 mph 1015mb 85f 77f
6:00am 1.3ft 4s 4 9 mph 1015.2mb 85f 77f
5:00am 1.3ft 5s 7 13 mph 1015.5mb 85f 77f
4:00am 1.3ft 4s 7 11 mph 1016mb 85f 78f
3:00am 1.6ft 5s 9 13 mph 1016.1mb 85f 78f
2:00am 1.6ft 5s 4 9 mph 1015.9mb 85f 78f
1:00am 1.6ft 4s 9 13 mph 1015.5mb 85f 78f
12:00am 1.6ft 5s 9 18 mph 1015.2mb 85f 78f
Thu 10/16 11:00pm 1.6ft 5s 9 16 mph 1015mb 85f 78f
10:00pm 1.6ft 5s 9 13 mph 1015mb 85f 78f
9:00pm 1.6ft 5s 9 13 mph 1015.3mb 85f 78f
8:00pm 2ft 5s 7 13 mph 1015.8mb 85f 78f
7:00pm 2ft 5s 9 11 mph 1016.3mb 85f 78f
6:00pm 2ft 5s 7 13 mph 1017.4mb 85f 78f
5:00pm 2.5ft 5s 7 16 mph 1018.1mb 85f 78f
4:00pm 2.5ft 5s 9 13 mph 1018.3mb 84f 78f
3:00pm 2.5ft 6s 13 18 mph 1018.1mb 85f 78f
2:00pm 2.5ft 6s 13 20 mph 1017.7mb 84f 78f
1:00pm 2.5ft 6s 13 22 mph 1017mb 84f 77f
12:00pm 3ft 6s 18 25 mph 1016.4mb 84f 78f